Time;durP1;ratioP1;P1;durP2;ratioP2;P2;SDS_P1;SDS_P2;PMS_P1;PMS_P2;Temp;Humidity;BMP_temperature;BMP_pressure;BME280_temperature;BME280_humidity;BME280_pressure;Samples;Min_cycle;Max_cycle;Signal;HPM_P1;HPM_P2
2021/09/03 00:02:23;;;;;;;17.87;9.53;;;12.80;87.40;;;;;;5035407;28;20196;-87
2021/09/03 00:04:49;;;;;;;13.83;10.00;;;12.90;87.20;;;;;;5035458;28;20179;-87
2021/09/03 00:07:15;;;;;;;19.17;9.70;;;12.80;87.20;;;;;;5035622;28;20260;-86
2021/09/03 00:09:40;;;;;;;16.43;9.57;;;12.80;87.20;;;;;;5052886;28;20164;-87
2021/09/03 00:12:07;;;;;;;15.80;9.37;;;12.80;87.20;;;;;;5035163;28;20198;-86
2021/09/03 00:14:34;;;;;;;14.90;10.40;;;12.80;86.50;;;;;;5053041;28;20544;-86
2021/09/03 00:17:00;;;;;;;15.23;9.77;;;12.80;86.30;;;;;;5035445;28;20172;-86
2021/09/03 00:19:26;;;;;;;15.53;9.50;;;12.90;85.50;;;;;;5035237;28;20199;-86
2021/09/03 00:21:52;;;;;;;17.10;10.27;;;12.90;84.90;;;;;;5052966;28;20218;-86
2021/09/03 00:24:22;;;;;;;14.87;9.17;;;12.90;85.20;;;;;;5035429;28;20175;-86
2021/09/03 00:26:49;;;;;;;13.87;8.60;;;12.80;84.90;;;;;;5052975;28;20609;-86
2021/09/03 00:29:15;;;;;;;17.43;9.13;;;12.80;84.60;;;;;;5052814;28;20196;-86
2021/09/03 00:31:41;;;;;;;18.37;9.00;;;12.80;84.40;;;;;;5035026;28;20207;-86
2021/09/03 00:34:07;;;;;;;19.17;10.37;;;12.80;84.50;;;;;;5035036;28;20289;-86
2021/09/03 00:36:33;;;;;;;17.60;9.83;;;12.80;85.50;;;;;;5035035;28;20179;-86
2021/09/03 00:38:58;;;;;;;18.97;10.20;;;12.70;86.90;;;;;;5035338;28;20179;-86
2021/09/03 00:41:25;;;;;;;17.90;10.13;;;12.70;86.90;;;;;;5052715;28;20191;-86
2021/09/03 00:43:50;;;;;;;14.80;9.90;;;12.70;87.20;;;;;;5035008;28;20548;-87
2021/09/03 00:46:16;;;;;;;17.90;10.03;;;12.70;86.90;;;;;;5035045;28;20176;-87
2021/09/03 00:48:42;;;;;;;16.53;9.30;;;12.60;86.60;;;;;;5034841;28;20702;-87
2021/09/03 00:51:08;;;;;;;14.97;9.70;;;12.70;86.70;;;;;;5052557;28;20196;-87
2021/09/03 00:53:37;;;;;;;22.80;10.83;;;12.60;86.70;;;;;;5052784;28;20577;-87
2021/09/03 00:56:03;;;;;;;14.23;9.97;;;12.60;86.60;;;;;;5034971;28;20179;-87
2021/09/03 00:58:29;;;;;;;19.20;10.53;;;12.60;86.30;;;;;;5034865;28;20237;-87
2021/09/03 01:00:54;;;;;;;13.40;8.77;;;12.60;86.70;;;;;;5055471;28;20176;-87
2021/09/03 01:03:20;;;;;;;22.47;10.57;;;12.60;87.20;;;;;;5038768;28;20172;-87
2021/09/03 01:05:46;;;;;;;15.37;9.97;;;12.50;87.20;;;;;;5038614;28;20247;-87
2021/09/03 01:08:12;;;;;;;19.10;10.47;;;12.50;87.30;;;;;;5038462;28;20228;-87
2021/09/03 01:10:38;;;;;;;15.80;10.13;;;12.50;87.10;;;;;;5056262;28;20199;-87
2021/09/03 01:13:04;;;;;;;13.20;9.70;;;12.40;87.20;;;;;;5056218;28;20180;-87
2021/09/03 01:15:30;;;;;;;17.97;10.83;;;12.40;87.40;;;;;;5038414;28;20168;-87
2021/09/03 01:17:55;;;;;;;25.63;11.70;;;12.40;87.20;;;;;;5039340;28;20207;-87
2021/09/03 01:20:21;;;;;;;17.43;10.27;;;12.40;86.90;;;;;;5038348;28;20551;-87
2021/09/03 01:22:47;;;;;;;25.90;11.60;;;12.40;87.20;;;;;;5056333;28;20192;-87
2021/09/03 01:25:14;;;;;;;19.63;11.10;;;12.40;87.00;;;;;;5038225;28;20682;-86
2021/09/03 01:27:41;;;;;;;19.37;10.93;;;12.40;86.90;;;;;;5038125;28;20286;-87
2021/09/03 01:30:11;;;;;;;18.00;11.03;;;12.40;87.10;;;;;;5038109;28;20266;-87
2021/09/03 01:32:37;;;;;;;17.63;10.43;;;12.30;87.40;;;;;;5038028;28;20231;-87
2021/09/03 01:35:03;;;;;;;17.03;11.30;;;12.30;87.60;;;;;;5055846;28;20542;-87
2021/09/03 01:37:29;;;;;;;23.63;11.33;;;12.30;87.20;;;;;;5055760;28;20172;-87
2021/09/03 01:39:54;;;;;;;17.93;11.23;;;12.30;87.60;;;;;;5038664;28;20183;-87
2021/09/03 01:42:20;;;;;;;22.17;13.73;;;12.30;87.80;;;;;;5055645;28;20200;-87
2021/09/03 01:44:46;;;;;;;25.30;13.60;;;12.20;88.30;;;;;;5037955;28;20263;-87
2021/09/03 01:47:11;;;;;;;22.43;13.50;;;12.20;88.70;;;;;;5037775;28;20267;-87
2021/09/03 01:49:37;;;;;;;21.10;13.93;;;12.20;89.10;;;;;;5055697;28;20168;-87
2021/09/03 01:52:03;;;;;;;21.20;14.03;;;12.30;89.30;;;;;;5055485;28;20250;-87
2021/09/03 01:54:29;;;;;;;23.67;14.33;;;12.20;89.30;;;;;;5055761;28;20164;-87
2021/09/03 01:56:54;;;;;;;25.97;15.63;;;12.20;89.50;;;;;;5037732;28;20705;-87
2021/09/03 01:59:20;;;;;;;26.40;14.53;;;12.30;89.50;;;;;;5037610;28;20725;-87
2021/09/03 02:01:46;;;;;;;21.93;14.37;;;12.30;89.70;;;;;;5037512;28;20203;-87
2021/09/03 02:04:11;;;;;;;30.93;16.10;;;12.40;90.20;;;;;;5037577;28;20176;-87
2021/09/03 02:06:37;;;;;;;28.27;16.67;;;12.60;90.80;;;;;;5037813;28;20176;-87
2021/09/03 02:09:03;;;;;;;30.53;15.63;;;12.60;90.70;;;;;;5055711;28;20235;-86
2021/09/03 02:11:28;;;;;;;28.77;16.17;;;12.70;90.70;;;;;;5036757;28;20199;-87
2021/09/03 02:13:54;;;;;;;26.67;16.63;;;12.70;90.60;;;;;;5055265;28;20176;-86
2021/09/03 02:16:20;;;;;;;29.00;16.50;;;12.70;90.40;;;;;;5055108;28;20168;-86
2021/09/03 02:18:45;;;;;;;29.97;16.97;;;12.80;90.50;;;;;;5055020;28;20172;-86
2021/09/03 02:21:11;;;;;;;35.07;17.67;;;12.80;90.60;;;;;;5037123;28;20202;-86
2021/09/03 02:23:37;;;;;;;29.53;17.07;;;12.80;90.60;;;;;;5037226;28;20192;-86
2021/09/03 02:26:03;;;;;;;33.37;16.97;;;12.80;90.40;;;;;;5037079;28;20624;-87
2021/09/03 02:28:28;;;;;;;27.53;15.40;;;12.90;90.30;;;;;;5036978;28;20200;-87
2021/09/03 02:30:54;;;;;;;27.73;16.17;;;12.90;90.30;;;;;;5036902;28;20199;-87
2021/09/03 02:33:20;;;;;;;26.63;16.00;;;12.80;90.20;;;;;;5054847;28;20175;-87
2021/09/03 02:35:46;;;;;;;27.13;16.17;;;12.90;90.30;;;;;;5037902;28;20548;-87
2021/09/03 02:38:11;;;;;;;27.13;15.90;;;12.90;90.40;;;;;;5054694;28;20172;-86
2021/09/03 02:40:38;;;;;;;29.37;15.97;;;12.90;90.60;;;;;;5054713;28;20199;-87
2021/09/03 02:43:03;;;;;;;30.43;16.67;;;12.90;90.70;;;;;;5036773;28;20589;-87
2021/09/03 02:45:29;;;;;;;28.93;16.93;;;13.00;90.80;;;;;;5054608;28;20222;-87
2021/09/03 02:47:55;;;;;;;32.03;16.90;;;12.90;90.80;;;;;;5036567;28;20200;-87
2021/09/03 02:50:21;;;;;;;31.30;18.30;;;13.00;90.70;;;;;;5054408;28;20167;-87
2021/09/03 02:52:47;;;;;;;34.90;18.47;;;13.00;90.60;;;;;;5036558;28;20236;-86
2021/09/03 02:55:12;;;;;;;34.77;18.40;;;13.00;90.60;;;;;;5054589;28;20207;-86
2021/09/03 02:57:39;;;;;;;30.30;17.07;;;13.00;90.70;;;;;;5054519;28;20258;-86
2021/09/03 03:00:07;;;;;;;28.33;17.50;;;13.00;90.70;;;;;;5036380;28;20176;-86
2021/09/03 03:02:32;;;;;;;31.53;19.20;;;13.00;90.80;;;;;;5036256;28;20196;-86
2021/09/03 03:04:58;;;;;;;30.00;19.37;;;13.00;90.90;;;;;;5036586;28;20171;-86
2021/09/03 03:07:24;;;;;;;35.37;21.93;;;13.00;90.90;;;;;;5036266;28;20694;-86
2021/09/03 03:09:49;;;;;;;36.63;21.47;;;13.10;90.90;;;;;;5036170;28;20172;-86
2021/09/03 03:12:18;;;;;;;36.60;21.10;;;13.10;90.90;;;;;;5036136;28;20196;-86
2021/09/03 03:14:44;;;;;;;39.00;22.27;;;13.10;90.90;;;;;;5036072;28;20643;-86
2021/09/03 03:17:10;;;;;;;40.50;21.77;;;13.10;90.90;;;;;;5053960;28;20168;-86
2021/09/03 03:19:35;;;;;;;37.43;23.40;;;13.20;91.00;;;;;;5035989;28;20179;-86
2021/09/03 03:22:01;;;;;;;39.80;22.43;;;13.20;91.00;;;;;;5053807;28;20215;-86
2021/09/03 03:24:27;;;;;;;44.07;22.57;;;13.20;91.00;;;;;;5034998;28;20191;-86
2021/09/03 03:26:53;;;;;;;36.97;22.70;;;13.20;90.90;;;;;;5053689;28;20202;-86
2021/09/03 03:29:19;;;;;;;39.03;22.43;;;13.30;91.00;;;;;;5035900;28;20200;-86
2021/09/03 03:31:44;;;;;;;34.37;21.40;;;13.30;90.90;;;;;;5053658;28;20249;-86
2021/09/03 03:34:10;;;;;;;38.40;22.03;;;13.30;91.00;;;;;;5053675;28;20710;-85
2021/09/03 03:36:36;;;;;;;38.40;23.57;;;13.30;91.00;;;;;;5036103;28;20172;-86
2021/09/03 03:39:02;;;;;;;33.23;22.40;;;13.30;90.90;;;;;;5053517;28;20176;-86
2021/09/03 03:41:28;;;;;;;38.77;21.47;;;13.30;90.90;;;;;;5053555;28;20252;-86
2021/09/03 03:43:54;;;;;;;35.87;22.50;;;13.30;90.90;;;;;;5035966;28;20180;-86
2021/09/03 03:46:19;;;;;;;47.90;24.50;;;13.30;91.00;;;;;;5035619;28;20280;-86
2021/09/03 03:48:45;;;;;;;44.53;22.70;;;13.40;90.90;;;;;;5053572;28;20204;-86
2021/09/03 03:51:10;;;;;;;40.53;24.27;;;13.40;91.10;;;;;;5035423;28;20208;-86
2021/09/03 03:53:36;;;;;;;47.87;24.13;;;13.40;91.10;;;;;;5035640;28;20167;-86
2021/09/03 03:56:02;;;;;;;42.13;22.93;;;13.50;91.10;;;;;;5053265;28;20305;-85
2021/09/03 03:58:27;;;;;;;40.77;23.43;;;13.50;91.00;;;;;;5035426;28;20187;-86
2021/09/03 04:00:53;;;;;;;37.30;22.47;;;13.50;91.00;;;;;;5035360;28;20175;-86
2021/09/03 04:03:19;;;;;;;40.60;23.93;;;13.50;90.90;;;;;;5053181;28;20180;-85
2021/09/03 04:05:44;;;;;;;48.93;25.20;;;13.50;91.00;;;;;;5035382;28;20275;-85
2021/09/03 04:08:10;;;;;;;43.37;24.93;;;13.50;91.00;;;;;;5035533;28;20210;-85
2021/09/03 04:10:35;;;;;;;44.03;24.23;;;13.50;91.00;;;;;;5035426;28;20172;-86
2021/09/03 04:13:01;;;;;;;43.27;23.87;;;13.60;91.00;;;;;;5053004;28;20199;-85
2021/09/03 04:15:27;;;;;;;45.27;25.03;;;13.60;91.00;;;;;;5053040;28;20204;-86
2021/09/03 04:17:53;;;;;;;43.10;24.23;;;13.60;90.90;;;;;;5035573;28;20178;-86
2021/09/03 04:20:19;;;;;;;46.93;23.87;;;13.70;90.90;;;;;;5052992;28;20251;-86
2021/09/03 04:22:44;;;;;;;38.93;24.47;;;13.70;90.90;;;;;;5052994;28;20211;-86
2021/09/03 04:25:11;;;;;;;48.63;23.80;;;13.70;91.00;;;;;;5035166;28;20176;-86
2021/09/03 04:27:39;;;;;;;47.17;24.47;;;13.70;91.00;;;;;;5035012;28;20215;-86
2021/09/03 04:30:05;;;;;;;49.60;24.07;;;13.70;91.00;;;;;;5053254;28;20530;-86
2021/09/03 04:32:31;;;;;;;53.03;24.70;;;13.80;90.90;;;;;;5034995;28;20187;-85
2021/09/03 04:34:57;;;;;;;45.07;25.57;;;13.70;90.90;;;;;;5036150;28;20249;-85
2021/09/03 04:37:22;;;;;;;43.23;23.53;;;13.80;90.90;;;;;;5056895;28;20168;-86
2021/09/03 04:39:48;;;;;;;46.80;23.63;;;13.80;90.90;;;;;;5039093;28;20199;-86
2021/09/03 04:42:14;;;;;;;45.53;23.30;;;13.70;90.90;;;;;;5040112;28;20610;-86
2021/09/03 04:44:39;;;;;;;46.20;24.33;;;13.80;90.90;;;;;;5038945;28;20176;-86
2021/09/03 04:47:05;;;;;;;43.60;25.60;;;13.70;90.80;;;;;;5038863;28;20180;-86
2021/09/03 04:49:31;;;;;;;47.23;24.20;;;13.80;90.90;;;;;;5038994;28;20666;-87
2021/09/03 04:51:56;;;;;;;48.37;23.13;;;13.80;90.90;;;;;;5056977;28;20200;-87
2021/09/03 04:54:22;;;;;;;39.70;23.13;;;13.80;90.80;;;;;;5038838;28;20183;-87
2021/09/03 04:56:48;;;;;;;42.70;23.50;;;13.80;90.80;;;;;;5038851;28;20172;-86
2021/09/03 04:59:13;;;;;;;40.27;24.17;;;13.80;90.90;;;;;;5038734;28;20203;-87
2021/09/03 05:01:39;;;;;;;43.33;22.80;;;13.80;90.80;;;;;;5056588;28;20743;-87
2021/09/03 05:04:05;;;;;;;44.00;23.13;;;13.80;90.80;;;;;;5038677;28;20279;-87
2021/09/03 05:06:30;;;;;;;41.30;22.00;;;13.90;90.80;;;;;;5056451;28;20175;-87
2021/09/03 05:08:56;;;;;;;43.00;22.10;;;13.90;90.80;;;;;;5038466;28;20290;-87
2021/09/03 05:11:22;;;;;;;41.33;22.13;;;13.90;90.80;;;;;;5038459;28;20203;-87
2021/09/03 05:13:47;;;;;;;40.30;22.13;;;13.90;90.80;;;;;;5038610;28;20179;-87
2021/09/03 05:16:13;;;;;;;38.97;21.10;;;14.00;90.80;;;;;;5038499;28;20176;-88
2021/09/03 05:18:39;;;;;;;43.07;22.67;;;14.00;90.70;;;;;;5038506;28;20267;-87
2021/09/03 05:21:07;;;;;;;38.13;20.80;;;14.00;90.60;;;;;;5038340;28;20224;-87
2021/09/03 05:23:33;;;;;;;46.07;23.10;;;14.00;90.80;;;;;;5039167;28;20186;-87
2021/09/03 05:25:58;;;;;;;39.23;20.67;;;14.00;90.80;;;;;;5056008;28;20644;-88
2021/09/03 05:28:25;;;;;;;45.97;21.17;;;14.10;90.70;;;;;;5038274;28;20211;-87
2021/09/03 05:30:51;;;;;;;38.33;20.07;;;14.10;90.80;;;;;;5038139;28;20179;-88
2021/09/03 05:33:17;;;;;;;43.33;21.03;;;14.10;90.70;;;;;;5038053;28;20263;-87
2021/09/03 05:35:42;;;;;;;38.93;19.97;;;14.20;90.70;;;;;;5055900;28;20225;-87
2021/09/03 05:38:08;;;;;;;40.63;21.20;;;14.20;90.70;;;;;;5055895;28;20290;-87
2021/09/03 05:40:34;;;;;;;42.87;20.47;;;14.20;90.70;;;;;;5038029;28;20229;-87
2021/09/03 05:43:00;;;;;;;35.87;20.30;;;14.20;90.70;;;;;;5038169;28;20199;-87
2021/09/03 05:45:26;;;;;;;36.67;20.73;;;14.20;90.70;;;;;;5055737;28;20176;-88
2021/09/03 05:47:52;;;;;;;39.20;20.20;;;14.30;90.60;;;;;;5036797;28;20200;-87
2021/09/03 05:50:19;;;;;;;43.23;20.23;;;14.30;90.70;;;;;;5037790;28;20544;-88
2021/09/03 05:52:44;;;;;;;39.33;20.23;;;14.30;90.70;;;;;;5037835;28;20308;-87
2021/09/03 05:55:10;;;;;;;40.67;19.73;;;14.40;90.60;;;;;;5038276;28;20246;-87
2021/09/03 05:57:36;;;;;;;38.30;18.17;;;14.40;90.60;;;;;;5038000;28;20179;-88
2021/09/03 06:00:03;;;;;;;44.30;20.23;;;14.40;90.70;;;;;;5037720;28;20176;-87
2021/09/03 06:02:29;;;;;;;39.03;20.50;;;14.50;90.60;;;;;;5037443;28;20195;-88
2021/09/03 06:04:55;;;;;;;44.97;21.13;;;14.40;90.60;;;;;;5037518;28;20191;-87
2021/09/03 06:07:20;;;;;;;45.57;19.50;;;14.50;90.60;;;;;;5055513;28;20168;-87
2021/09/03 06:09:46;;;;;;;42.67;19.90;;;14.50;90.40;;;;;;5037456;28;20211;-86
2021/09/03 06:12:12;;;;;;;37.80;19.30;;;14.50;90.40;;;;;;5037360;28;20188;-86
2021/09/03 06:14:38;;;;;;;40.80;20.03;;;14.50;90.40;;;;;;5037418;28;20215;-87
2021/09/03 06:17:03;;;;;;;36.80;18.47;;;14.60;90.40;;;;;;5055130;28;20179;-87
2021/09/03 06:19:29;;;;;;;31.63;18.97;;;14.70;90.40;;;;;;5037205;28;20176;-87
2021/09/03 06:21:57;;;;;;;40.30;19.20;;;14.70;90.40;;;;;;5037077;28;20203;-87
2021/09/03 06:24:32;;;;;;;40.57;19.10;;;14.70;90.30;;;;;;5037476;28;20172;-87
2021/09/03 06:27:07;;;;;;;39.00;18.97;;;14.80;90.40;;;;;;5037468;28;20186;-87
2021/09/03 06:29:42;;;;;;;44.43;19.43;;;14.80;90.30;;;;;;5038022;28;20163;-87
2021/09/03 06:32:12;;;;;;;45.47;19.03;;;14.80;90.40;;;;;;5055032;28;20271;-87
2021/09/03 06:34:56;;;;;;;36.40;18.20;;;14.80;90.40;;;;;;5036994;28;20180;-87
2021/09/03 06:37:25;;;;;;;32.50;16.23;;;14.90;90.30;;;;;;5036864;28;20164;-87
2021/09/03 06:39:51;;;;;;;32.87;18.57;;;14.90;89.80;;;;;;5036767;28;20260;-87
2021/09/03 06:42:17;;;;;;;29.67;13.60;;;14.90;89.80;;;;;;5037085;28;20638;-86
2021/09/03 06:44:43;;;;;;;24.53;12.90;;;14.90;89.20;;;;;;5036733;28;20178;-87
2021/09/03 06:47:11;;;;;;;27.70;12.93;;;14.90;88.90;;;;;;5054521;28;20174;-87
2021/09/03 06:49:36;;;;;;;24.43;12.23;;;15.00;88.90;;;;;;5054523;28;20696;-87
2021/09/03 06:52:04;;;;;;;24.77;12.90;;;15.00;88.50;;;;;;5036410;28;20298;-87
2021/09/03 06:54:31;;;;;;;26.07;13.43;;;15.10;88.60;;;;;;5036565;28;20172;-87
2021/09/03 06:56:57;;;;;;;23.93;13.73;;;15.10;88.80;;;;;;5054351;28;20221;-87
2021/09/03 06:59:23;;;;;;;28.30;14.70;;;15.10;89.00;;;;;;5054084;28;20251;-87
2021/09/03 07:01:49;;;;;;;22.53;13.37;;;15.10;88.80;;;;;;5036417;28;20291;-87
2021/09/03 07:04:14;;;;;;;25.87;14.50;;;15.20;88.40;;;;;;5054499;28;20207;-87
2021/09/03 07:06:40;;;;;;;21.27;11.80;;;15.20;88.20;;;;;;5036386;28;20182;-87
2021/09/03 07:09:06;;;;;;;32.90;14.10;;;15.20;87.80;;;;;;5036191;28;20238;-87
2021/09/03 07:11:33;;;;;;;24.13;14.60;;;15.20;87.80;;;;;;5054336;28;20598;-87
2021/09/03 07:14:00;;;;;;;19.97;14.20;;;15.20;87.00;;;;;;5036299;28;20538;-87
2021/09/03 07:16:26;;;;;;;21.73;13.73;;;15.20;86.80;;;;;;5054311;28;20315;-87
2021/09/03 07:18:52;;;;;;;25.63;13.93;;;15.20;86.70;;;;;;5036203;28;20584;-87
2021/09/03 07:21:18;;;;;;;24.47;13.93;;;15.30;86.70;;;;;;5036075;28;20237;-87
2021/09/03 07:23:44;;;;;;;25.07;13.33;;;15.40;86.60;;;;;;5036462;28;20218;-87
2021/09/03 07:26:09;;;;;;;19.83;12.10;;;15.40;86.20;;;;;;5036068;28;20179;-87
2021/09/03 07:28:35;;;;;;;27.23;13.53;;;15.50;85.70;;;;;;5035951;28;20575;-87
2021/09/03 07:31:00;;;;;;;23.70;12.95;;;15.50;85.90;;;;;;5053702;28;20196;-87
2021/09/03 07:33:26;;;;;;;21.33;12.17;;;15.60;85.60;;;;;;5035947;28;20182;-87
2021/09/03 07:35:52;;;;;;;25.77;11.88;;;15.70;85.60;;;;;;5035952;28;20636;-87
2021/09/03 07:38:18;;;;;;;25.38;14.18;;;15.70;85.40;;;;;;5035861;28;20180;-87
2021/09/03 07:40:45;;;;;;;24.20;13.35;;;15.70;85.10;;;;;;5035669;28;20183;-88
2021/09/03 07:43:11;;;;;;;26.23;14.00;;;15.80;85.50;;;;;;5053574;28;20200;-86
2021/09/03 07:45:38;;;;;;;26.58;13.27;;;15.90;85.50;;;;;;5053517;28;20172;-86
2021/09/03 07:48:06;;;;;;;24.90;12.68;;;16.00;84.80;;;;;;5035450;28;20283;-86
2021/09/03 07:50:33;;;;;;;25.02;12.52;;;15.90;85.20;;;;;;5035440;28;20176;-86
2021/09/03 07:52:59;;;;;;;26.23;12.85;;;16.00;84.80;;;;;;5035702;28;20203;-86
2021/09/03 07:55:25;;;;;;;20.75;11.18;;;16.10;84.40;;;;;;5053279;28;20172;-86
2021/09/03 07:57:51;;;;;;;21.83;9.80;;;16.00;84.60;;;;;;5035467;28;20548;-86
2021/09/03 08:00:17;;;;;;;20.83;9.52;;;16.10;84.30;;;;;;5036281;28;20176;-87
2021/09/03 08:02:43;;;;;;;21.83;9.88;;;16.10;83.70;;;;;;5035377;28;20287;-87
2021/09/03 08:05:09;;;;;;;19.85;8.77;;;16.20;83.60;;;;;;5035368;28;20172;-87
2021/09/03 08:07:35;;;;;;;17.13;7.88;;;16.10;83.00;;;;;;5035677;28;20207;-87
2021/09/03 08:10:01;;;;;;;20.05;8.75;;;16.20;83.20;;;;;;5034798;28;20176;-87
2021/09/03 08:12:27;;;;;;;18.60;7.90;;;16.20;83.00;;;;;;5035351;28;20198;-87
2021/09/03 08:14:53;;;;;;;21.00;8.63;;;16.20;82.20;;;;;;5053206;28;20181;-87
2021/09/03 08:17:18;;;;;;;18.92;8.30;;;16.20;82.40;;;;;;5035316;28;20176;-87
2021/09/03 08:19:44;;;;;;;16.58;7.00;;;16.30;82.50;;;;;;5053490;28;20648;-87
2021/09/03 08:22:11;;;;;;;18.17;7.80;;;16.50;82.00;;;;;;5053064;28;20187;-87
2021/09/03 08:24:36;;;;;;;20.48;7.72;;;16.70;82.20;;;;;;5035192;28;20175;-86
2021/09/03 08:27:03;;;;;;;17.60;7.85;;;16.80;81.70;;;;;;5052983;28;20514;-86
2021/09/03 08:29:28;;;;;;;21.17;7.80;;;16.70;81.20;;;;;;5035127;28;20200;-86
2021/09/03 08:31:54;;;;;;;20.58;7.15;;;16.60;81.90;;;;;;5035054;28;20207;-86
2021/09/03 08:34:20;;;;;;;20.23;8.32;;;16.70;82.20;;;;;;5035258;28;20169;-86
2021/09/03 08:36:46;;;;;;;21.85;8.20;;;16.70;81.90;;;;;;5035053;28;20203;-86
2021/09/03 08:39:11;;;;;;;20.35;8.02;;;16.90;81.70;;;;;;5052942;28;20172;-86
2021/09/03 08:41:37;;;;;;;20.02;8.20;;;16.90;81.50;;;;;;5035007;28;20235;-86
2021/09/03 08:44:04;;;;;;;18.05;7.60;;;16.80;81.90;;;;;;5034976;28;20176;-86
2021/09/03 08:46:32;;;;;;;16.77;7.72;;;16.90;81.80;;;;;;5052894;28;20663;-87
2021/09/03 08:49:03;;;;;;;23.45;8.57;;;17.10;81.50;;;;;;5034797;28;20287;-85
2021/09/03 08:51:32;;;;;;;19.42;7.10;;;17.10;81.00;;;;;;5052761;28;20215;-85
2021/09/03 08:53:57;;;;;;;21.25;7.93;;;17.10;80.40;;;;;;5053160;28;20159;-86
2021/09/03 08:56:23;;;;;;;17.77;7.40;;;17.20;80.20;;;;;;5034922;28;20267;-86
2021/09/03 08:58:49;;;;;;;18.40;7.35;;;17.30;80.60;;;;;;5035152;28;20180;-86
2021/09/03 09:01:17;;;;;;;16.42;7.82;;;17.40;80.00;;;;;;5052560;28;20196;-85
2021/09/03 09:03:46;;;;;;;16.35;7.60;;;17.30;79.60;;;;;;5053535;28;20652;-86
2021/09/03 09:06:27;;;;;;;11.68;6.18;;;17.30;79.20;;;;;;5052745;28;20238;-87
2021/09/03 09:09:03;;;;;;;19.42;7.47;;;17.40;78.80;;;;;;5034745;28;20203;-86
2021/09/03 09:11:30;;;;;;;16.85;7.97;;;17.30;79.00;;;;;;5052545;28;20691;-84
2021/09/03 09:13:59;;;;;;;19.15;7.63;;;17.20;79.70;;;;;;5034754;28;20183;-84
2021/09/03 09:16:27;;;;;;;22.83;7.80;;;17.40;79.20;;;;;;5052520;28;20616;-87
2021/09/03 09:18:58;;;;;;;16.73;7.28;;;17.60;79.70;;;;;;5034705;28;20172;-87
2021/09/03 09:21:37;;;;;;;20.73;7.82;;;17.60;80.00;;;;;;5036342;28;20196;-87
2021/09/03 09:24:04;;;;;;;16.33;7.35;;;17.40;79.50;;;;;;5038267;28;20224;-87
2021/09/03 09:26:54;;;;;;;17.10;7.63;;;17.50;80.20;;;;;;5038225;28;20176;-87
2021/09/03 09:29:35;;;;;;;19.85;8.32;;;17.60;79.80;;;;;;5038104;28;20258;-87
2021/09/03 09:32:07;;;;;;;16.40;9.27;;;17.50;80.20;;;;;;5038003;28;20698;-86
2021/09/03 09:34:35;;;;;;;24.60;11.10;;;17.60;78.60;;;;;;5038157;28;20180;-87
2021/09/03 09:37:06;;;;;;;25.30;11.48;;;17.50;78.40;;;;;;5038820;28;20171;-85
2021/09/03 09:39:51;;;;;;;17.27;11.25;;;17.70;79.10;;;;;;5055808;28;20164;-85
2021/09/03 09:42:22;;;;;;;23.70;12.55;;;17.70;78.00;;;;;;5055682;28;20274;-85
2021/09/03 09:45:03;;;;;;;23.83;13.52;;;17.40;78.90;;;;;;5055651;28;20179;-85
2021/09/03 09:47:29;;;;;;;24.88;13.88;;;17.70;80.30;;;;;;5038261;28;20206;-85
2021/09/03 09:49:54;;;;;;;24.48;14.57;;;18.00;78.50;;;;;;5055734;28;20192;-85
2021/09/03 09:52:34;;;;;;;23.05;14.05;;;17.90;77.90;;;;;;5037503;28;20643;-85
2021/09/03 09:55:00;;;;;;;31.77;15.48;;;17.60;77.90;;;;;;5037667;28;20203;-85
2021/09/03 09:57:31;;;;;;;33.03;16.95;;;17.70;79.20;;;;;;5037606;28;20199;-85
2021/09/03 09:59:58;;;;;;;25.90;14.75;;;17.50;79.00;;;;;;5037626;28;20268;-85
2021/09/03 10:02:24;;;;;;;28.95;16.50;;;17.60;78.50;;;;;;5055294;28;20559;-85
2021/09/03 10:04:50;;;;;;;24.35;15.98;;;17.70;79.30;;;;;;5037525;28;20179;-85
2021/09/03 10:07:16;;;;;;;22.80;15.40;;;18.00;79.10;;;;;;5055201;28;20168;-85
2021/09/03 10:09:42;;;;;;;25.98;15.27;;;18.00;78.10;;;;;;5055203;28;20169;-85
2021/09/03 10:12:07;;;;;;;25.58;16.35;;;18.20;77.60;;;;;;5055147;28;20249;-85
2021/09/03 10:14:34;;;;;;;24.13;15.40;;;18.30;77.00;;;;;;5055164;28;20168;-85
2021/09/03 10:17:00;;;;;;;25.38;15.32;;;18.30;78.00;;;;;;5055121;28;20170;-85
2021/09/03 10:19:32;;;;;;;22.92;14.35;;;18.50;76.80;;;;;;5037518;28;20519;-85
2021/09/03 10:22:06;;;;;;;24.98;15.02;;;18.30;77.70;;;;;;5054939;28;20279;-85
2021/09/03 10:24:34;;;;;;;21.73;15.35;;;18.60;77.60;;;;;;5037193;28;20635;-85
2021/09/03 10:27:01;;;;;;;22.25;13.80;;;18.30;77.60;;;;;;5037115;28;20171;-86
2021/09/03 10:29:34;;;;;;;21.42;14.15;;;18.40;76.40;;;;;;5036933;28;20206;-85
2021/09/03 10:34:43;;;;;;;30.20;13.95;;;19.10;75.20;;;;;;5054848;28;20172;-86
2021/09/03 10:37:14;;;;;;;21.65;13.90;;;19.30;75.20;;;;;;5036927;28;20179;-85
2021/09/03 10:39:51;;;;;;;20.73;12.85;;;19.20;75.10;;;;;;5054714;28;20176;-85
2021/09/03 10:42:42;;;;;;;18.90;14.00;;;19.20;74.60;;;;;;5054841;28;20191;-85
2021/09/03 10:45:15;;;;;;;24.98;13.40;;;19.20;74.40;;;;;;5036752;28;20164;-85
2021/09/03 10:48:10;;;;;;;23.05;14.45;;;18.90;75.30;;;;;;5036580;28;20219;-85
2021/09/03 10:50:43;;;;;;;24.30;14.15;;;18.50;75.10;;;;;;5036612;28;20161;-85
2021/09/03 10:53:12;;;;;;;25.08;13.20;;;18.60;75.90;;;;;;5036823;28;20217;-85
2021/09/03 10:55:55;;;;;;;23.10;13.25;;;18.80;75.70;;;;;;5054393;28;20168;-85
2021/09/03 10:58:36;;;;;;;21.80;12.23;;;19.10;76.30;;;;;;5036477;28;20247;-85
2021/09/03 11:03:40;;;;;;;25.13;13.23;;;19.10;75.20;;;;;;5054487;28;20274;-85
2021/09/03 11:06:06;;;;;;;22.83;12.82;;;18.80;75.60;;;;;;5054214;28;20183;-85
2021/09/03 11:08:45;;;;;;;23.88;12.60;;;18.90;76.30;;;;;;5054004;28;20668;-85
2021/09/03 11:11:29;;;;;;;20.60;12.27;;;19.30;73.60;;;;;;5036408;28;20569;-85
2021/09/03 11:13:57;;;;;;;20.38;13.38;;;18.80;75.50;;;;;;5054252;28;20532;-85
2021/09/03 11:16:50;;;;;;;21.00;13.60;;;18.80;74.50;;;;;;5036172;28;20172;-85
2021/09/03 11:19:21;;;;;;;23.15;12.23;;;18.90;76.30;;;;;;5024186;28;20591;-85
2021/09/03 11:21:58;;;;;;;23.55;12.25;;;19.00;74.90;;;;;;5035979;28;20200;-86
2021/09/03 11:24:30;;;;;;;23.67;13.25;;;19.20;74.90;;;;;;5053873;28;20163;-86
2021/09/03 11:26:57;;;;;;;20.50;11.75;;;19.40;75.00;;;;;;5035859;28;20258;-86
2021/09/03 11:29:32;;;;;;;16.85;11.23;;;19.40;73.00;;;;;;5053733;28;20227;-86
2021/09/03 11:32:18;;;;;;;25.40;12.23;;;19.40;73.60;;;;;;5035743;28;20195;-86
2021/09/03 11:34:58;;;;;;;22.52;11.63;;;19.30;73.30;;;;;;5054052;28;20663;-86
2021/09/03 11:37:26;;;;;;;24.10;11.98;;;19.40;72.80;;;;;;5035800;28;20589;-86
2021/09/03 11:39:54;;;;;;;23.95;12.00;;;19.30;73.70;;;;;;5053645;28;20644;-86
2021/09/03 11:42:26;;;;;;;22.92;13.23;;;19.50;73.30;;;;;;5053518;28;20246;-86
2021/09/03 11:45:13;;;;;;;22.85;11.93;;;19.30;72.60;;;;;;5034834;28;20247;-86
2021/09/03 11:48:09;;;;;;;24.05;12.00;;;19.20;73.30;;;;;;5035593;28;20254;-86
2021/09/03 11:50:41;;;;;;;18.52;11.80;;;19.10;73.40;;;;;;5019661;28;20211;-86
2021/09/03 11:53:14;;;;;;;20.17;12.13;;;19.20;73.40;;;;;;5053427;28;20239;-86
2021/09/03 11:55:42;;;;;;;19.83;12.05;;;19.10;74.80;;;;;;5053322;28;20555;-86
2021/09/03 11:58:09;;;;;;;19.05;12.10;;;19.30;73.70;;;;;;5053283;28;20686;-86
2021/09/03 12:00:37;;;;;;;18.27;12.05;;;19.50;72.80;;;;;;5053172;28;20176;-86
2021/09/03 12:03:19;;;;;;;19.85;13.02;;;19.70;72.20;;;;;;5052962;28;20188;-86
2021/09/03 12:05:47;;;;;;;25.88;13.00;;;19.90;73.60;;;;;;5035255;28;20605;-86
2021/09/03 12:08:23;;;;;;;15.70;11.23;;;19.80;71.40;;;;;;5035231;28;20215;-86
2021/09/03 12:11:02;;;;;;;23.02;11.70;;;19.70;71.10;;;;;;5035249;28;20167;-86
2021/09/03 12:13:30;;;;;;;24.38;12.38;;;19.60;72.40;;;;;;5035381;28;20164;-86
2021/09/03 12:16:08;;;;;;;22.80;12.32;;;19.70;73.50;;;;;;5035296;28;20176;-86
2021/09/03 12:18:39;;;;;;;19.60;13.00;;;20.10;71.60;;;;;;5035232;28;20175;-86
2021/09/03 12:21:10;;;;;;;26.98;13.02;;;19.90;71.90;;;;;;5035153;28;20200;-86
2021/09/03 12:23:46;;;;;;;23.02;12.52;;;19.90;72.10;;;;;;5035283;28;20179;-86
2021/09/03 12:26:15;;;;;;;19.30;11.98;;;19.90;72.20;;;;;;5035228;28;20191;-86
2021/09/03 12:28:46;;;;;;;19.67;12.25;;;20.30;70.90;;;;;;5035047;28;20196;-86
2021/09/03 12:31:19;;;;;;;20.95;12.50;;;20.10;71.50;;;;;;5035950;28;20199;-86
2021/09/03 12:33:57;;;;;;;24.42;12.30;;;20.30;70.80;;;;;;5052971;28;20201;-85
2021/09/03 12:36:29;;;;;;;19.20;11.55;;;20.40;70.20;;;;;;5035187;28;20160;-86
2021/09/03 12:39:00;;;;;;;21.10;12.90;;;20.40;70.80;;;;;;5052928;28;20165;-86